sensor_id;sensor_type;location;lat;lon;timestamp;P1;durP1;ratioP1;P2;durP2;ratioP2
27895;SDS011;15241;48.374;10.876;2023-12-04T00:00:07;27.10;;;14.13;;
27895;SDS011;15241;48.374;10.876;2023-12-04T00:05:07;30.72;;;14.23;;
27895;SDS011;15241;48.374;10.876;2023-12-04T00:10:06;28.65;;;14.40;;
27895;SDS011;15241;48.374;10.876;2023-12-04T00:15:07;27.60;;;14.13;;
27895;SDS011;15241;48.374;10.876;2023-12-04T00:20:07;26.90;;;13.58;;
27895;SDS011;15241;48.374;10.876;2023-12-04T00:25:07;30.25;;;15.10;;
27895;SDS011;15241;48.374;10.876;2023-12-04T00:30:06;27.82;;;14.38;;
27895;SDS011;15241;48.374;10.876;2023-12-04T00:35:06;25.62;;;12.90;;
27895;SDS011;15241;48.374;10.876;2023-12-04T00:40:07;22.98;;;12.82;;
27895;SDS011;15241;48.374;10.876;2023-12-04T00:45:08;27.30;;;12.78;;
27895;SDS011;15241;48.374;10.876;2023-12-04T00:50:08;27.55;;;13.48;;
27895;SDS011;15241;48.374;10.876;2023-12-04T00:55:08;23.22;;;12.55;;
27895;SDS011;15241;48.374;10.876;2023-12-04T01:00:08;24.90;;;13.95;;
27895;SDS011;15241;48.374;10.876;2023-12-04T01:05:08;26.02;;;13.70;;
27895;SDS011;15241;48.374;10.876;2023-12-04T01:10:07;29.07;;;13.83;;
27895;SDS011;15241;48.374;10.876;2023-12-04T01:15:08;26.15;;;13.53;;
27895;SDS011;15241;48.374;10.876;2023-12-04T01:20:08;23.25;;;12.63;;
27895;SDS011;15241;48.374;10.876;2023-12-04T01:25:09;24.65;;;12.65;;
27895;SDS011;15241;48.374;10.876;2023-12-04T01:30:09;25.57;;;12.73;;
27895;SDS011;15241;48.374;10.876;2023-12-04T01:35:08;27.30;;;13.60;;
27895;SDS011;15241;48.374;10.876;2023-12-04T01:40:08;23.30;;;12.18;;
27895;SDS011;15241;48.374;10.876;2023-12-04T01:45:08;23.25;;;12.35;;
27895;SDS011;15241;48.374;10.876;2023-12-04T01:50:08;22.02;;;12.47;;
27895;SDS011;15241;48.374;10.876;2023-12-04T01:55:07;23.75;;;11.78;;
27895;SDS011;15241;48.374;10.876;2023-12-04T02:00:08;24.50;;;13.20;;
27895;SDS011;15241;48.374;10.876;2023-12-04T02:05:08;30.25;;;13.35;;
27895;SDS011;15241;48.374;10.876;2023-12-04T02:10:08;21.90;;;11.40;;
27895;SDS011;15241;48.374;10.876;2023-12-04T02:15:08;20.82;;;11.45;;
27895;SDS011;15241;48.374;10.876;2023-12-04T02:20:08;22.17;;;11.40;;
27895;SDS011;15241;48.374;10.876;2023-12-04T02:25:08;19.67;;;11.75;;
27895;SDS011;15241;48.374;10.876;2023-12-04T02:30:09;22.13;;;11.22;;
27895;SDS011;15241;48.374;10.876;2023-12-04T02:35:09;20.97;;;11.03;;
27895;SDS011;15241;48.374;10.876;2023-12-04T02:40:09;24.18;;;11.95;;
27895;SDS011;15241;48.374;10.876;2023-12-04T02:45:09;23.92;;;11.20;;
27895;SDS011;15241;48.374;10.876;2023-12-04T02:50:08;25.60;;;11.57;;
27895;SDS011;15241;48.374;10.876;2023-12-04T02:55:07;20.30;;;11.75;;
27895;SDS011;15241;48.374;10.876;2023-12-04T03:00:07;20.17;;;11.20;;
27895;SDS011;15241;48.374;10.876;2023-12-04T03:05:07;20.85;;;11.18;;
27895;SDS011;15241;48.374;10.876;2023-12-04T03:10:06;22.67;;;11.15;;
27895;SDS011;15241;48.374;10.876;2023-12-04T03:15:06;21.57;;;10.72;;
27895;SDS011;15241;48.374;10.876;2023-12-04T03:20:05;19.15;;;10.63;;
27895;SDS011;15241;48.374;10.876;2023-12-04T03:25:06;20.15;;;10.05;;
27895;SDS011;15241;48.374;10.876;2023-12-04T03:30:06;22.50;;;11.28;;
27895;SDS011;15241;48.374;10.876;2023-12-04T03:35:06;18.82;;;10.20;;
27895;SDS011;15241;48.374;10.876;2023-12-04T03:40:06;20.35;;;11.35;;
27895;SDS011;15241;48.374;10.876;2023-12-04T03:45:07;19.52;;;10.75;;
27895;SDS011;15241;48.374;10.876;2023-12-04T03:50:07;19.30;;;9.53;;
27895;SDS011;15241;48.374;10.876;2023-12-04T03:55:06;23.83;;;10.93;;
27895;SDS011;15241;48.374;10.876;2023-12-04T04:00:08;22.50;;;11.53;;
27895;SDS011;15241;48.374;10.876;2023-12-04T04:05:08;20.72;;;11.38;;
27895;SDS011;15241;48.374;10.876;2023-12-04T04:10:07;18.17;;;10.25;;
27895;SDS011;15241;48.374;10.876;2023-12-04T04:15:07;19.82;;;10.60;;
27895;SDS011;15241;48.374;10.876;2023-12-04T04:20:07;22.35;;;10.60;;
27895;SDS011;15241;48.374;10.876;2023-12-04T04:25:07;18.82;;;9.98;;
27895;SDS011;15241;48.374;10.876;2023-12-04T04:30:07;19.42;;;10.25;;
27895;SDS011;15241;48.374;10.876;2023-12-04T04:35:07;17.02;;;10.58;;
27895;SDS011;15241;48.374;10.876;2023-12-04T04:40:07;27.67;;;13.90;;
27895;SDS011;15241;48.374;10.876;2023-12-04T04:45:07;20.97;;;10.70;;
27895;SDS011;15241;48.374;10.876;2023-12-04T04:50:07;25.65;;;10.48;;
27895;SDS011;15241;48.374;10.876;2023-12-04T04:55:07;20.85;;;11.22;;
27895;SDS011;15241;48.374;10.876;2023-12-04T05:00:07;22.98;;;10.88;;
27895;SDS011;15241;48.374;10.876;2023-12-04T05:05:07;22.42;;;11.68;;
27895;SDS011;15241;48.374;10.876;2023-12-04T05:10:06;21.52;;;11.53;;
27895;SDS011;15241;48.374;10.876;2023-12-04T05:15:06;20.90;;;11.05;;
27895;SDS011;15241;48.374;10.876;2023-12-04T05:20:06;22.87;;;11.63;;
27895;SDS011;15241;48.374;10.876;2023-12-04T05:25:07;24.45;;;12.15;;
27895;SDS011;15241;48.374;10.876;2023-12-04T05:30:06;20.27;;;10.90;;
27895;SDS011;15241;48.374;10.876;2023-12-04T05:35:06;26.27;;;11.35;;
27895;SDS011;15241;48.374;10.876;2023-12-04T05:40:09;22.93;;;11.30;;
27895;SDS011;15241;48.374;10.876;2023-12-04T05:45:08;24.23;;;11.25;;
27895;SDS011;15241;48.374;10.876;2023-12-04T05:50:08;21.05;;;10.30;;
27895;SDS011;15241;48.374;10.876;2023-12-04T05:55:07;20.72;;;10.95;;
27895;SDS011;15241;48.374;10.876;2023-12-04T06:00:08;22.50;;;10.82;;
27895;SDS011;15241;48.374;10.876;2023-12-04T06:05:08;17.27;;;10.30;;
27895;SDS011;15241;48.374;10.876;2023-12-04T06:10:07;22.77;;;11.05;;
27895;SDS011;15241;48.374;10.876;2023-12-04T06:15:07;27.73;;;12.30;;
27895;SDS011;15241;48.374;10.876;2023-12-04T06:20:08;23.45;;;12.07;;
27895;SDS011;15241;48.374;10.876;2023-12-04T06:25:09;27.22;;;13.50;;
27895;SDS011;15241;48.374;10.876;2023-12-04T06:30:10;26.10;;;12.75;;
27895;SDS011;15241;48.374;10.876;2023-12-04T06:35:12;28.57;;;12.88;;
27895;SDS011;15241;48.374;10.876;2023-12-04T06:40:13;26.70;;;12.73;;
27895;SDS011;15241;48.374;10.876;2023-12-04T06:45:13;20.30;;;10.43;;
27895;SDS011;15241;48.374;10.876;2023-12-04T06:50:12;23.73;;;11.95;;
27895;SDS011;15241;48.374;10.876;2023-12-04T06:55:11;22.67;;;11.48;;
27895;SDS011;15241;48.374;10.876;2023-12-04T07:00:11;20.08;;;11.40;;
27895;SDS011;15241;48.374;10.876;2023-12-04T07:05:10;25.23;;;11.83;;
27895;SDS011;15241;48.374;10.876;2023-12-04T07:10:09;26.00;;;12.07;;
27895;SDS011;15241;48.374;10.876;2023-12-04T07:15:08;19.20;;;11.33;;
27895;SDS011;15241;48.374;10.876;2023-12-04T07:20:07;23.38;;;12.18;;
27895;SDS011;15241;48.374;10.876;2023-12-04T07:25:08;24.07;;;12.37;;
27895;SDS011;15241;48.374;10.876;2023-12-04T07:30:07;29.37;;;13.55;;
27895;SDS011;15241;48.374;10.876;2023-12-04T07:35:07;24.95;;;12.70;;
27895;SDS011;15241;48.374;10.876;2023-12-04T07:40:07;21.62;;;12.28;;
27895;SDS011;15241;48.374;10.876;2023-12-04T07:45:08;30.30;;;13.50;;
27895;SDS011;15241;48.374;10.876;2023-12-04T07:50:08;24.20;;;12.28;;
27895;SDS011;15241;48.374;10.876;2023-12-04T08:00:24;24.32;;;13.20;;
27895;SDS011;15241;48.374;10.876;2023-12-04T08:05:23;25.30;;;12.05;;
27895;SDS011;15241;48.374;10.876;2023-12-04T08:10:21;19.27;;;11.88;;
27895;SDS011;15241;48.374;10.876;2023-12-04T08:15:20;21.93;;;11.70;;
27895;SDS011;15241;48.374;10.876;2023-12-04T08:20:18;24.05;;;13.20;;
27895;SDS011;15241;48.374;10.876;2023-12-04T08:25:17;26.68;;;12.20;;
27895;SDS011;15241;48.374;10.876;2023-12-04T08:30:15;24.87;;;11.20;;
27895;SDS011;15241;48.374;10.876;2023-12-04T08:35:14;27.32;;;11.68;;
27895;SDS011;15241;48.374;10.876;2023-12-04T08:40:12;22.90;;;11.88;;
27895;SDS011;15241;48.374;10.876;2023-12-04T08:45:11;19.82;;;11.95;;
27895;SDS011;15241;48.374;10.876;2023-12-04T08:50:10;28.42;;;15.10;;
27895;SDS011;15241;48.374;10.876;2023-12-04T08:55:09;29.40;;;15.10;;
27895;SDS011;15241;48.374;10.876;2023-12-04T09:00:11;31.48;;;15.45;;
27895;SDS011;15241;48.374;10.876;2023-12-04T09:05:10;33.30;;;17.10;;
27895;SDS011;15241;48.374;10.876;2023-12-04T09:10:09;26.77;;;15.63;;
27895;SDS011;15241;48.374;10.876;2023-12-04T09:15:07;28.00;;;14.47;;
27895;SDS011;15241;48.374;10.876;2023-12-04T09:20:06;32.67;;;16.15;;
27895;SDS011;15241;48.374;10.876;2023-12-04T09:25:06;30.25;;;14.38;;
27895;SDS011;15241;48.374;10.876;2023-12-04T09:30:09;23.77;;;14.13;;
27895;SDS011;15241;48.374;10.876;2023-12-04T09:35:08;25.82;;;14.83;;
27895;SDS011;15241;48.374;10.876;2023-12-04T09:40:08;31.37;;;16.67;;
27895;SDS011;15241;48.374;10.876;2023-12-04T09:45:09;30.32;;;16.32;;
27895;SDS011;15241;48.374;10.876;2023-12-04T09:50:09;25.08;;;15.38;;
27895;SDS011;15241;48.374;10.876;2023-12-04T09:55:08;27.70;;;15.40;;
27895;SDS011;15241;48.374;10.876;2023-12-04T10:00:08;23.95;;;14.73;;
27895;SDS011;15241;48.374;10.876;2023-12-04T10:05:09;27.13;;;14.13;;
27895;SDS011;15241;48.374;10.876;2023-12-04T10:10:08;24.55;;;13.93;;
27895;SDS011;15241;48.374;10.876;2023-12-04T10:15:09;24.05;;;14.10;;
27895;SDS011;15241;48.374;10.876;2023-12-04T10:20:18;24.15;;;15.53;;
27895;SDS011;15241;48.374;10.876;2023-12-04T10:25:17;22.80;;;13.93;;
27895;SDS011;15241;48.374;10.876;2023-12-04T10:30:27;21.75;;;13.03;;
27895;SDS011;15241;48.374;10.876;2023-12-04T10:35:26;20.75;;;12.78;;
27895;SDS011;15241;48.374;10.876;2023-12-04T10:40:26;22.42;;;13.38;;
27895;SDS011;15241;48.374;10.876;2023-12-04T10:45:26;22.35;;;12.78;;
27895;SDS011;15241;48.374;10.876;2023-12-04T10:50:25;23.18;;;13.55;;
27895;SDS011;15241;48.374;10.876;2023-12-04T10:55:25;23.20;;;14.00;;
27895;SDS011;15241;48.374;10.876;2023-12-04T11:00:23;27.52;;;14.07;;
27895;SDS011;15241;48.374;10.876;2023-12-04T11:05:23;25.37;;;14.45;;
27895;SDS011;15241;48.374;10.876;2023-12-04T11:10:23;25.97;;;13.38;;
27895;SDS011;15241;48.374;10.876;2023-12-04T11:15:23;23.45;;;14.18;;
27895;SDS011;15241;48.374;10.876;2023-12-04T11:20:23;21.05;;;13.35;;
27895;SDS011;15241;48.374;10.876;2023-12-04T11:25:23;21.57;;;12.88;;
27895;SDS011;15241;48.374;10.876;2023-12-04T11:30:22;24.25;;;13.43;;
27895;SDS011;15241;48.374;10.876;2023-12-04T11:35:21;27.55;;;16.48;;
27895;SDS011;15241;48.374;10.876;2023-12-04T11:40:21;25.37;;;14.85;;
27895;SDS011;15241;48.374;10.876;2023-12-04T11:45:19;26.52;;;15.50;;
27895;SDS011;15241;48.374;10.876;2023-12-04T11:50:19;26.10;;;15.90;;
27895;SDS011;15241;48.374;10.876;2023-12-04T11:55:19;21.77;;;14.23;;
27895;SDS011;15241;48.374;10.876;2023-12-04T12:00:22;26.42;;;16.20;;
27895;SDS011;15241;48.374;10.876;2023-12-04T12:05:20;23.87;;;14.75;;
27895;SDS011;15241;48.374;10.876;2023-12-04T12:10:20;22.20;;;12.88;;
27895;SDS011;15241;48.374;10.876;2023-12-04T12:15:19;20.90;;;12.60;;
27895;SDS011;15241;48.374;10.876;2023-12-04T12:20:18;24.85;;;13.78;;
27895;SDS011;15241;48.374;10.876;2023-12-04T12:25:16;21.77;;;13.38;;
27895;SDS011;15241;48.374;10.876;2023-12-04T12:30:15;19.57;;;13.15;;
27895;SDS011;15241;48.374;10.876;2023-12-04T12:35:13;22.15;;;13.55;;
27895;SDS011;15241;48.374;10.876;2023-12-04T12:40:12;21.52;;;13.78;;
27895;SDS011;15241;48.374;10.876;2023-12-04T12:45:10;23.70;;;15.72;;
27895;SDS011;15241;48.374;10.876;2023-12-04T12:50:09;21.57;;;15.13;;
27895;SDS011;15241;48.374;10.876;2023-12-04T12:55:08;22.95;;;16.90;;
27895;SDS011;15241;48.374;10.876;2023-12-04T13:00:07;20.65;;;15.23;;
27895;SDS011;15241;48.374;10.876;2023-12-04T13:05:07;21.77;;;15.28;;
27895;SDS011;15241;48.374;10.876;2023-12-04T13:10:07;23.18;;;14.25;;
27895;SDS011;15241;48.374;10.876;2023-12-04T13:15:06;19.65;;;14.30;;
27895;SDS011;15241;48.374;10.876;2023-12-04T13:20:08;23.35;;;15.15;;
27895;SDS011;15241;48.374;10.876;2023-12-04T13:25:08;21.62;;;13.78;;
27895;SDS011;15241;48.374;10.876;2023-12-04T13:30:07;23.98;;;14.65;;
27895;SDS011;15241;48.374;10.876;2023-12-04T13:35:08;22.90;;;14.93;;
27895;SDS011;15241;48.374;10.876;2023-12-04T13:40:07;23.83;;;14.30;;
27895;SDS011;15241;48.374;10.876;2023-12-04T13:45:06;21.95;;;14.23;;
27895;SDS011;15241;48.374;10.876;2023-12-04T13:50:07;22.25;;;15.05;;
27895;SDS011;15241;48.374;10.876;2023-12-04T13:55:07;20.12;;;14.05;;
27895;SDS011;15241;48.374;10.876;2023-12-04T14:00:08;23.70;;;16.90;;
27895;SDS011;15241;48.374;10.876;2023-12-04T14:05:08;25.72;;;16.00;;
27895;SDS011;15241;48.374;10.876;2023-12-04T14:10:07;26.77;;;16.75;;
27895;SDS011;15241;48.374;10.876;2023-12-04T14:15:06;26.90;;;16.85;;
27895;SDS011;15241;48.374;10.876;2023-12-04T14:20:07;27.25;;;17.30;;
27895;SDS011;15241;48.374;10.876;2023-12-04T14:25:07;28.25;;;17.12;;
27895;SDS011;15241;48.374;10.876;2023-12-04T14:30:06;26.73;;;17.25;;
27895;SDS011;15241;48.374;10.876;2023-12-04T14:35:06;25.75;;;17.00;;
27895;SDS011;15241;48.374;10.876;2023-12-04T14:40:06;28.38;;;17.05;;
27895;SDS011;15241;48.374;10.876;2023-12-04T14:45:06;27.02;;;17.15;;
27895;SDS011;15241;48.374;10.876;2023-12-04T14:50:06;25.57;;;16.02;;
27895;SDS011;15241;48.374;10.876;2023-12-04T14:55:06;32.33;;;18.70;;
27895;SDS011;15241;48.374;10.876;2023-12-04T15:00:06;31.62;;;18.92;;
27895;SDS011;15241;48.374;10.876;2023-12-04T15:05:06;31.30;;;17.67;;
27895;SDS011;15241;48.374;10.876;2023-12-04T15:10:05;35.08;;;16.07;;
27895;SDS011;15241;48.374;10.876;2023-12-04T15:15:05;31.23;;;15.93;;
27895;SDS011;15241;48.374;10.876;2023-12-04T15:20:05;24.37;;;14.03;;
27895;SDS011;15241;48.374;10.876;2023-12-04T15:25:05;23.32;;;13.70;;
27895;SDS011;15241;48.374;10.876;2023-12-04T15:30:05;23.22;;;13.00;;
27895;SDS011;15241;48.374;10.876;2023-12-04T15:35:05;22.62;;;13.48;;
27895;SDS011;15241;48.374;10.876;2023-12-04T15:40:05;22.65;;;13.05;;
27895;SDS011;15241;48.374;10.876;2023-12-04T15:45:06;25.80;;;14.03;;
27895;SDS011;15241;48.374;10.876;2023-12-04T15:50:06;26.42;;;13.70;;
27895;SDS011;15241;48.374;10.876;2023-12-04T15:55:07;23.00;;;14.20;;
27895;SDS011;15241;48.374;10.876;2023-12-04T16:00:07;21.68;;;13.43;;
27895;SDS011;15241;48.374;10.876;2023-12-04T16:05:07;22.58;;;13.78;;
27895;SDS011;15241;48.374;10.876;2023-12-04T16:10:06;22.62;;;14.90;;
27895;SDS011;15241;48.374;10.876;2023-12-04T16:15:07;24.67;;;13.83;;
27895;SDS011;15241;48.374;10.876;2023-12-04T16:20:07;26.73;;;14.90;;
27895;SDS011;15241;48.374;10.876;2023-12-04T16:25:07;22.13;;;14.73;;
27895;SDS011;15241;48.374;10.876;2023-12-04T16:30:07;26.25;;;14.50;;
27895;SDS011;15241;48.374;10.876;2023-12-04T16:35:06;24.55;;;14.63;;
27895;SDS011;15241;48.374;10.876;2023-12-04T16:40:06;29.02;;;15.72;;
27895;SDS011;15241;48.374;10.876;2023-12-04T16:45:07;23.62;;;13.98;;
27895;SDS011;15241;48.374;10.876;2023-12-04T16:50:06;23.62;;;13.28;;
27895;SDS011;15241;48.374;10.876;2023-12-04T16:55:07;22.77;;;12.85;;
27895;SDS011;15241;48.374;10.876;2023-12-04T17:00:07;22.58;;;12.47;;
27895;SDS011;15241;48.374;10.876;2023-12-04T17:05:08;21.82;;;11.22;;
27895;SDS011;15241;48.374;10.876;2023-12-04T17:10:08;20.25;;;11.97;;
27895;SDS011;15241;48.374;10.876;2023-12-04T17:15:07;24.82;;;13.00;;
27895;SDS011;15241;48.374;10.876;2023-12-04T17:20:07;23.35;;;12.70;;
27895;SDS011;15241;48.374;10.876;2023-12-04T17:25:08;20.45;;;13.13;;
27895;SDS011;15241;48.374;10.876;2023-12-04T17:30:07;21.48;;;12.20;;
27895;SDS011;15241;48.374;10.876;2023-12-04T17:35:07;19.67;;;12.23;;
27895;SDS011;15241;48.374;10.876;2023-12-04T17:40:07;29.27;;;15.90;;
27895;SDS011;15241;48.374;10.876;2023-12-04T17:45:07;25.80;;;13.32;;
27895;SDS011;15241;48.374;10.876;2023-12-04T17:50:06;23.22;;;13.90;;
27895;SDS011;15241;48.374;10.876;2023-12-04T17:55:06;25.32;;;14.98;;
27895;SDS011;15241;48.374;10.876;2023-12-04T18:00:06;24.30;;;14.63;;
27895;SDS011;15241;48.374;10.876;2023-12-04T18:05:08;26.73;;;15.68;;
27895;SDS011;15241;48.374;10.876;2023-12-04T18:10:07;25.20;;;15.25;;
27895;SDS011;15241;48.374;10.876;2023-12-04T18:15:06;27.22;;;15.08;;
27895;SDS011;15241;48.374;10.876;2023-12-04T18:20:07;23.02;;;13.50;;
27895;SDS011;15241;48.374;10.876;2023-12-04T18:25:08;26.12;;;15.35;;
27895;SDS011;15241;48.374;10.876;2023-12-04T18:30:08;23.57;;;14.45;;
27895;SDS011;15241;48.374;10.876;2023-12-04T18:35:09;27.13;;;16.60;;
27895;SDS011;15241;48.374;10.876;2023-12-04T18:40:09;27.50;;;16.93;;
27895;SDS011;15241;48.374;10.876;2023-12-04T18:45:10;32.78;;;16.90;;
27895;SDS011;15241;48.374;10.876;2023-12-04T18:50:11;27.65;;;16.52;;
27895;SDS011;15241;48.374;10.876;2023-12-04T18:55:10;26.40;;;15.63;;
27895;SDS011;15241;48.374;10.876;2023-12-04T19:00:10;28.12;;;16.57;;
27895;SDS011;15241;48.374;10.876;2023-12-04T19:05:10;34.83;;;19.23;;
27895;SDS011;15241;48.374;10.876;2023-12-04T19:10:09;31.45;;;18.85;;
27895;SDS011;15241;48.374;10.876;2023-12-04T19:15:08;28.73;;;15.98;;
27895;SDS011;15241;48.374;10.876;2023-12-04T19:20:08;30.20;;;16.95;;
27895;SDS011;15241;48.374;10.876;2023-12-04T19:25:08;27.73;;;16.60;;
27895;SDS011;15241;48.374;10.876;2023-12-04T19:30:07;26.62;;;17.12;;
27895;SDS011;15241;48.374;10.876;2023-12-04T19:35:07;34.88;;;18.10;;
27895;SDS011;15241;48.374;10.876;2023-12-04T19:40:07;30.02;;;16.12;;
27895;SDS011;15241;48.374;10.876;2023-12-04T19:45:08;31.60;;;17.40;;
27895;SDS011;15241;48.374;10.876;2023-12-04T19:50:08;28.47;;;16.37;;
27895;SDS011;15241;48.374;10.876;2023-12-04T19:55:07;27.32;;;16.00;;
27895;SDS011;15241;48.374;10.876;2023-12-04T20:00:07;29.30;;;16.80;;
27895;SDS011;15241;48.374;10.876;2023-12-04T20:05:07;27.87;;;15.58;;
27895;SDS011;15241;48.374;10.876;2023-12-04T20:10:06;26.87;;;16.07;;
27895;SDS011;15241;48.374;10.876;2023-12-04T20:15:07;28.67;;;16.12;;
27895;SDS011;15241;48.374;10.876;2023-12-04T20:20:08;30.10;;;16.82;;
27895;SDS011;15241;48.374;10.876;2023-12-04T20:25:07;28.12;;;16.23;;
27895;SDS011;15241;48.374;10.876;2023-12-04T20:30:07;28.27;;;17.17;;
27895;SDS011;15241;48.374;10.876;2023-12-04T20:35:06;26.57;;;16.77;;
27895;SDS011;15241;48.374;10.876;2023-12-04T20:40:06;28.40;;;16.85;;
27895;SDS011;15241;48.374;10.876;2023-12-04T20:45:07;29.50;;;15.68;;
27895;SDS011;15241;48.374;10.876;2023-12-04T20:50:07;26.23;;;14.85;;
27895;SDS011;15241;48.374;10.876;2023-12-04T20:55:07;34.03;;;18.07;;
27895;SDS011;15241;48.374;10.876;2023-12-04T21:00:07;29.57;;;17.17;;
27895;SDS011;15241;48.374;10.876;2023-12-04T21:05:07;26.65;;;15.58;;
27895;SDS011;15241;48.374;10.876;2023-12-04T21:10:07;25.17;;;14.70;;
27895;SDS011;15241;48.374;10.876;2023-12-04T21:15:07;24.25;;;14.80;;
27895;SDS011;15241;48.374;10.876;2023-12-04T21:20:07;28.12;;;15.55;;
27895;SDS011;15241;48.374;10.876;2023-12-04T21:25:07;26.52;;;15.08;;
27895;SDS011;15241;48.374;10.876;2023-12-04T21:30:07;24.82;;;14.13;;
27895;SDS011;15241;48.374;10.876;2023-12-04T21:35:06;26.62;;;15.45;;
27895;SDS011;15241;48.374;10.876;2023-12-04T21:40:06;26.93;;;15.85;;
27895;SDS011;15241;48.374;10.876;2023-12-04T21:45:07;25.23;;;15.40;;
27895;SDS011;15241;48.374;10.876;2023-12-04T21:50:06;29.63;;;15.88;;
27895;SDS011;15241;48.374;10.876;2023-12-04T21:55:05;26.77;;;16.17;;
27895;SDS011;15241;48.374;10.876;2023-12-04T22:00:05;25.12;;;14.53;;
27895;SDS011;15241;48.374;10.876;2023-12-04T22:05:05;26.42;;;14.87;;
27895;SDS011;15241;48.374;10.876;2023-12-04T22:10:05;25.08;;;15.25;;
27895;SDS011;15241;48.374;10.876;2023-12-04T22:15:05;24.57;;;15.35;;
27895;SDS011;15241;48.374;10.876;2023-12-04T22:20:05;28.52;;;15.90;;
27895;SDS011;15241;48.374;10.876;2023-12-04T22:25:05;28.60;;;15.70;;
27895;SDS011;15241;48.374;10.876;2023-12-04T22:30:05;28.07;;;17.07;;
27895;SDS011;15241;48.374;10.876;2023-12-04T22:35:05;22.20;;;13.43;;
27895;SDS011;15241;48.374;10.876;2023-12-04T22:40:05;23.77;;;14.83;;
27895;SDS011;15241;48.374;10.876;2023-12-04T22:45:05;24.23;;;14.18;;
27895;SDS011;15241;48.374;10.876;2023-12-04T22:50:07;23.75;;;14.58;;
27895;SDS011;15241;48.374;10.876;2023-12-04T22:55:06;31.00;;;16.57;;
27895;SDS011;15241;48.374;10.876;2023-12-04T23:00:06;29.70;;;17.05;;
27895;SDS011;15241;48.374;10.876;2023-12-04T23:05:06;30.72;;;16.65;;
27895;SDS011;15241;48.374;10.876;2023-12-04T23:10:06;30.15;;;16.70;;
27895;SDS011;15241;48.374;10.876;2023-12-04T23:15:06;31.00;;;16.40;;
27895;SDS011;15241;48.374;10.876;2023-12-04T23:20:06;27.87;;;16.50;;
27895;SDS011;15241;48.374;10.876;2023-12-04T23:25:07;28.23;;;16.57;;
27895;SDS011;15241;48.374;10.876;2023-12-04T23:30:06;30.85;;;16.25;;
27895;SDS011;15241;48.374;10.876;2023-12-04T23:35:06;28.47;;;17.45;;
27895;SDS011;15241;48.374;10.876;2023-12-04T23:40:06;29.98;;;17.35;;
27895;SDS011;15241;48.374;10.876;2023-12-04T23:45:07;31.40;;;16.37;;
27895;SDS011;15241;48.374;10.876;2023-12-04T23:50:06;27.35;;;16.00;;
27895;SDS011;15241;48.374;10.876;2023-12-04T23:55:06;27.10;;;15.93;;
